sensor_id;sensor_type;location;lat;lon;timestamp;pressure;altitude;pressure_sealevel;temperature;humidity
50710;BME280;37033;49.994;21.992;2023-01-16T00:00:10;98574.02;;;1.98;91.75
50710;BME280;37033;49.994;21.992;2023-01-16T00:03:20;98572.59;;;1.98;91.64
50710;BME280;37033;49.994;21.992;2023-01-16T00:06:10;98564.10;;;1.99;91.55
50710;BME280;37033;49.994;21.992;2023-01-16T00:09:00;98559.06;;;1.99;91.55
50710;BME280;37033;49.994;21.992;2023-01-16T00:11:50;98562.73;;;2.00;91.62
50710;BME280;37033;49.994;21.992;2023-01-16T00:14:40;98559.44;;;2.00;91.59
50710;BME280;37033;49.994;21.992;2023-01-16T00:17:30;98556.71;;;2.01;91.40
50710;BME280;37033;49.994;21.992;2023-01-16T00:20:20;98552.71;;;2.00;91.34
50710;BME280;37033;49.994;21.992;2023-01-16T00:23:11;98550.70;;;2.02;91.39
50710;BME280;37033;49.994;21.992;2023-01-16T00:26:01;98546.58;;;2.03;91.36
50710;BME280;37033;49.994;21.992;2023-01-16T00:28:53;98547.40;;;2.04;91.39
50710;BME280;37033;49.994;21.992;2023-01-16T00:31:44;98548.05;;;2.04;91.32
50710;BME280;37033;49.994;21.992;2023-01-16T00:34:34;98544.94;;;2.03;91.33
50710;BME280;37033;49.994;21.992;2023-01-16T00:37:23;98542.91;;;2.04;91.33
50710;BME280;37033;49.994;21.992;2023-01-16T00:43:03;98532.96;;;2.02;91.36
50710;BME280;37033;49.994;21.992;2023-01-16T00:45:53;98531.44;;;2.00;91.41
50710;BME280;37033;49.994;21.992;2023-01-16T00:48:44;98530.16;;;2.00;91.47
50710;BME280;37033;49.994;21.992;2023-01-16T00:51:34;98528.88;;;1.99;91.49
50710;BME280;37033;49.994;21.992;2023-01-16T00:54:24;98524.27;;;1.99;91.51
50710;BME280;37033;49.994;21.992;2023-01-16T00:57:14;98517.17;;;1.98;91.46
50710;BME280;37033;49.994;21.992;2023-01-16T01:00:05;98511.90;;;1.98;91.59
50710;BME280;37033;49.994;21.992;2023-01-16T01:02:55;98511.52;;;1.98;91.65
50710;BME280;37033;49.994;21.992;2023-01-16T01:05:45;98507.81;;;1.97;91.69
50710;BME280;37033;49.994;21.992;2023-01-16T01:08:35;98502.25;;;1.96;91.66
50710;BME280;37033;49.994;21.992;2023-01-16T01:11:25;98500.15;;;1.96;91.71
50710;BME280;37033;49.994;21.992;2023-01-16T01:14:15;98509.14;;;1.97;91.73
50710;BME280;37033;49.994;21.992;2023-01-16T01:17:05;98514.90;;;1.95;91.71
50710;BME280;37033;49.994;21.992;2023-01-16T01:19:55;98519.98;;;1.96;91.70
50710;BME280;37033;49.994;21.992;2023-01-16T01:22:46;98519.64;;;1.97;91.66
50710;BME280;37033;49.994;21.992;2023-01-16T01:25:38;98505.86;;;1.97;91.79
50710;BME280;37033;49.994;21.992;2023-01-16T01:28:28;98514.13;;;1.98;91.63
50710;BME280;37033;49.994;21.992;2023-01-16T01:31:18;98513.38;;;1.98;91.62
50710;BME280;37033;49.994;21.992;2023-01-16T01:34:08;98506.52;;;1.99;91.58
50710;BME280;37033;49.994;21.992;2023-01-16T01:36:58;98496.27;;;1.98;91.59
50710;BME280;37033;49.994;21.992;2023-01-16T01:39:48;98492.35;;;1.98;91.59
50710;BME280;37033;49.994;21.992;2023-01-16T01:42:39;98497.63;;;1.99;91.64
50710;BME280;37033;49.994;21.992;2023-01-16T01:45:33;98495.48;;;1.99;91.55
50710;BME280;37033;49.994;21.992;2023-01-16T01:48:26;98490.73;;;1.98;91.48
50710;BME280;37033;49.994;21.992;2023-01-16T01:51:21;98484.68;;;1.98;91.60
50710;BME280;37033;49.994;21.992;2023-01-16T01:54:15;98476.35;;;1.97;91.59
50710;BME280;37033;49.994;21.992;2023-01-16T01:57:09;98473.55;;;1.96;91.48
50710;BME280;37033;49.994;21.992;2023-01-16T02:00:04;98466.91;;;1.94;91.56
50710;BME280;37033;49.994;21.992;2023-01-16T02:03:02;98462.10;;;1.93;91.56
50710;BME280;37033;49.994;21.992;2023-01-16T02:05:55;98462.09;;;1.93;91.48
50710;BME280;37033;49.994;21.992;2023-01-16T02:08:47;98458.97;;;1.93;91.61
50710;BME280;37033;49.994;21.992;2023-01-16T02:11:42;98451.09;;;1.92;91.64
50710;BME280;37033;49.994;21.992;2023-01-16T02:14:38;98452.20;;;1.91;91.74
50710;BME280;37033;49.994;21.992;2023-01-16T02:17:28;98450.20;;;1.91;91.78
50710;BME280;37033;49.994;21.992;2023-01-16T02:20:43;98444.35;;;1.91;91.73
50710;BME280;37033;49.994;21.992;2023-01-16T02:24:07;98442.66;;;1.92;91.95
50710;BME280;37033;49.994;21.992;2023-01-16T02:27:12;98434.55;;;1.91;92.00
50710;BME280;37033;49.994;21.992;2023-01-16T02:30:32;98433.23;;;1.91;91.93
50710;BME280;37033;49.994;21.992;2023-01-16T02:33:37;98433.44;;;1.91;92.07
50710;BME280;37033;49.994;21.992;2023-01-16T02:36:40;98429.72;;;1.91;91.97
50710;BME280;37033;49.994;21.992;2023-01-16T02:39:42;98424.86;;;1.91;91.97
50710;BME280;37033;49.994;21.992;2023-01-16T02:42:40;98420.17;;;1.90;91.91
50710;BME280;37033;49.994;21.992;2023-01-16T02:45:39;98422.36;;;1.90;91.89
50710;BME280;37033;49.994;21.992;2023-01-16T02:48:36;98427.25;;;1.89;91.85
50710;BME280;37033;49.994;21.992;2023-01-16T02:51:34;98423.68;;;1.88;91.83
50710;BME280;37033;49.994;21.992;2023-01-16T02:54:30;98422.55;;;1.86;91.72
50710;BME280;37033;49.994;21.992;2023-01-16T02:57:27;98416.50;;;1.84;91.64
50710;BME280;37033;49.994;21.992;2023-01-16T03:00:20;98421.73;;;1.82;91.63
50710;BME280;37033;49.994;21.992;2023-01-16T03:03:26;98426.12;;;1.80;91.57
50710;BME280;37033;49.994;21.992;2023-01-16T03:06:30;98425.30;;;1.76;91.44
50710;BME280;37033;49.994;21.992;2023-01-16T03:09:34;98423.58;;;1.74;91.50
50710;BME280;37033;49.994;21.992;2023-01-16T03:12:32;98420.03;;;1.73;91.60
50710;BME280;37033;49.994;21.992;2023-01-16T03:15:30;98423.04;;;1.70;91.57
50710;BME280;37033;49.994;21.992;2023-01-16T03:18:33;98421.77;;;1.69;91.56
50710;BME280;37033;49.994;21.992;2023-01-16T03:21:30;98423.13;;;1.67;91.53
50710;BME280;37033;49.994;21.992;2023-01-16T03:24:30;98422.76;;;1.66;91.52
50710;BME280;37033;49.994;21.992;2023-01-16T03:27:32;98419.14;;;1.64;91.53
50710;BME280;37033;49.994;21.992;2023-01-16T03:30:28;98416.13;;;1.61;91.41
50710;BME280;37033;49.994;21.992;2023-01-16T03:33:30;98407.31;;;1.58;91.48
50710;BME280;37033;49.994;21.992;2023-01-16T03:36:29;98411.27;;;1.57;91.43
50710;BME280;37033;49.994;21.992;2023-01-16T03:39:23;98408.95;;;1.54;91.46
50710;BME280;37033;49.994;21.992;2023-01-16T03:42:18;98407.19;;;1.50;91.41
50710;BME280;37033;49.994;21.992;2023-01-16T03:45:13;98404.23;;;1.47;91.31
50710;BME280;37033;49.994;21.992;2023-01-16T03:48:09;98406.05;;;1.44;91.41
50710;BME280;37033;49.994;21.992;2023-01-16T03:51:04;98407.11;;;1.40;91.27
50710;BME280;37033;49.994;21.992;2023-01-16T03:54:00;98409.17;;;1.35;91.18
50710;BME280;37033;49.994;21.992;2023-01-16T03:56:50;98406.36;;;1.31;91.17
50710;BME280;37033;49.994;21.992;2023-01-16T03:59:43;98408.11;;;1.26;91.03
50710;BME280;37033;49.994;21.992;2023-01-16T04:02:41;98402.58;;;1.21;91.04
50710;BME280;37033;49.994;21.992;2023-01-16T04:05:42;98398.29;;;1.17;91.07
50710;BME280;37033;49.994;21.992;2023-01-16T04:08:37;98395.62;;;1.11;91.12
50710;BME280;37033;49.994;21.992;2023-01-16T04:11:29;98398.50;;;1.07;91.14
50710;BME280;37033;49.994;21.992;2023-01-16T04:14:22;98397.30;;;1.04;91.12
50710;BME280;37033;49.994;21.992;2023-01-16T04:17:13;98395.90;;;1.02;91.27
50710;BME280;37033;49.994;21.992;2023-01-16T04:20:04;98398.48;;;0.99;91.50
50710;BME280;37033;49.994;21.992;2023-01-16T04:22:55;98394.95;;;0.99;91.79
50710;BME280;37033;49.994;21.992;2023-01-16T04:25:46;98397.15;;;0.99;91.87
50710;BME280;37033;49.994;21.992;2023-01-16T04:28:35;98397.38;;;1.01;92.00
50710;BME280;37033;49.994;21.992;2023-01-16T04:31:26;98401.95;;;1.02;92.01
50710;BME280;37033;49.994;21.992;2023-01-16T04:34:16;98399.52;;;1.02;91.86
50710;BME280;37033;49.994;21.992;2023-01-16T04:37:06;98401.91;;;1.02;91.95
50710;BME280;37033;49.994;21.992;2023-01-16T04:39:56;98399.40;;;1.02;92.07
50710;BME280;37033;49.994;21.992;2023-01-16T04:42:47;98399.52;;;1.02;92.13
50710;BME280;37033;49.994;21.992;2023-01-16T04:45:37;98395.87;;;1.04;92.14
50710;BME280;37033;49.994;21.992;2023-01-16T04:48:29;98397.22;;;1.06;92.15
50710;BME280;37033;49.994;21.992;2023-01-16T04:51:18;98399.73;;;1.09;92.27
50710;BME280;37033;49.994;21.992;2023-01-16T04:54:13;98397.02;;;1.10;92.21
50710;BME280;37033;49.994;21.992;2023-01-16T04:57:03;98393.11;;;1.11;92.12
50710;BME280;37033;49.994;21.992;2023-01-16T04:59:53;98390.93;;;1.12;92.07
50710;BME280;37033;49.994;21.992;2023-01-16T05:02:42;98383.39;;;1.12;92.02
50710;BME280;37033;49.994;21.992;2023-01-16T05:05:32;98378.86;;;1.11;91.90
50710;BME280;37033;49.994;21.992;2023-01-16T05:08:22;98380.21;;;1.10;92.00
50710;BME280;37033;49.994;21.992;2023-01-16T05:11:16;98377.91;;;1.10;91.96
50710;BME280;37033;49.994;21.992;2023-01-16T05:14:07;98376.42;;;1.09;91.95
50710;BME280;37033;49.994;21.992;2023-01-16T05:16:59;98367.87;;;1.10;91.98
50710;BME280;37033;49.994;21.992;2023-01-16T05:19:49;98366.66;;;1.09;91.95
50710;BME280;37033;49.994;21.992;2023-01-16T05:22:38;98366.88;;;1.09;91.96
50710;BME280;37033;49.994;21.992;2023-01-16T05:25:28;98370.65;;;1.08;91.97
50710;BME280;37033;49.994;21.992;2023-01-16T05:28:18;98364.08;;;1.09;91.96
50710;BME280;37033;49.994;21.992;2023-01-16T05:31:08;98360.08;;;1.09;92.03
50710;BME280;37033;49.994;21.992;2023-01-16T05:33:57;98370.91;;;1.09;92.03
50710;BME280;37033;49.994;21.992;2023-01-16T05:36:47;98374.48;;;1.11;91.98
50710;BME280;37033;49.994;21.992;2023-01-16T05:39:37;98367.20;;;1.12;92.07
50710;BME280;37033;49.994;21.992;2023-01-16T05:42:27;98366.35;;;1.13;92.05
50710;BME280;37033;49.994;21.992;2023-01-16T05:45:17;98354.73;;;1.14;92.09
50710;BME280;37033;49.994;21.992;2023-01-16T05:48:07;98354.06;;;1.15;92.09
50710;BME280;37033;49.994;21.992;2023-01-16T05:50:57;98349.09;;;1.17;92.21
50710;BME280;37033;49.994;21.992;2023-01-16T05:53:50;98340.52;;;1.19;92.12
50710;BME280;37033;49.994;21.992;2023-01-16T05:56:40;98334.58;;;1.19;92.09
50710;BME280;37033;49.994;21.992;2023-01-16T05:59:31;98332.70;;;1.19;92.03
50710;BME280;37033;49.994;21.992;2023-01-16T06:02:21;98333.44;;;1.19;92.00
50710;BME280;37033;49.994;21.992;2023-01-16T06:05:11;98334.27;;;1.18;91.94
50710;BME280;37033;49.994;21.992;2023-01-16T06:08:02;98332.70;;;1.16;92.09
50710;BME280;37033;49.994;21.992;2023-01-16T06:10:53;98325.37;;;1.15;92.15
50710;BME280;37033;49.994;21.992;2023-01-16T06:13:44;98325.31;;;1.15;92.12
50710;BME280;37033;49.994;21.992;2023-01-16T06:16:35;98323.05;;;1.15;92.15
50710;BME280;37033;49.994;21.992;2023-01-16T06:19:25;98326.89;;;1.16;92.12
50710;BME280;37033;49.994;21.992;2023-01-16T06:22:15;98330.77;;;1.14;92.07
50710;BME280;37033;49.994;21.992;2023-01-16T06:25:06;98337.64;;;1.14;92.07
50710;BME280;37033;49.994;21.992;2023-01-16T06:27:56;98335.04;;;1.13;92.17
50710;BME280;37033;49.994;21.992;2023-01-16T06:30:45;98332.65;;;1.13;92.28
50710;BME280;37033;49.994;21.992;2023-01-16T06:33:39;98336.89;;;1.13;92.23
50710;BME280;37033;49.994;21.992;2023-01-16T06:36:29;98339.25;;;1.13;92.26
50710;BME280;37033;49.994;21.992;2023-01-16T06:39:19;98336.25;;;1.12;92.24
50710;BME280;37033;49.994;21.992;2023-01-16T06:42:09;98340.11;;;1.13;92.26
50710;BME280;37033;49.994;21.992;2023-01-16T06:44:59;98339.99;;;1.12;92.23
50710;BME280;37033;49.994;21.992;2023-01-16T06:47:53;98337.97;;;1.13;92.32
50710;BME280;37033;49.994;21.992;2023-01-16T06:50:43;98339.90;;;1.13;92.42
50710;BME280;37033;49.994;21.992;2023-01-16T06:53:33;98339.38;;;1.14;92.42
50710;BME280;37033;49.994;21.992;2023-01-16T06:56:23;98344.52;;;1.17;92.46
50710;BME280;37033;49.994;21.992;2023-01-16T06:59:13;98341.67;;;1.18;92.47
50710;BME280;37033;49.994;21.992;2023-01-16T07:02:02;98343.94;;;1.20;92.43
50710;BME280;37033;49.994;21.992;2023-01-16T07:04:52;98343.80;;;1.21;92.38
50710;BME280;37033;49.994;21.992;2023-01-16T07:07:42;98339.60;;;1.22;92.37
50710;BME280;37033;49.994;21.992;2023-01-16T07:10:32;98331.50;;;1.21;92.44
50710;BME280;37033;49.994;21.992;2023-01-16T07:13:21;98331.80;;;1.22;92.42
50710;BME280;37033;49.994;21.992;2023-01-16T07:16:17;98328.75;;;1.23;92.39
50710;BME280;37033;49.994;21.992;2023-01-16T07:19:25;98329.02;;;1.24;92.35
50710;BME280;37033;49.994;21.992;2023-01-16T07:22:33;98328.70;;;1.25;92.49
50710;BME280;37033;49.994;21.992;2023-01-16T07:25:33;98327.25;;;1.26;92.52
50710;BME280;37033;49.994;21.992;2023-01-16T07:28:24;98318.93;;;1.28;92.53
50710;BME280;37033;49.994;21.992;2023-01-16T07:31:14;98310.65;;;1.29;92.51
50710;BME280;37033;49.994;21.992;2023-01-16T07:34:05;98313.08;;;1.32;92.50
50710;BME280;37033;49.994;21.992;2023-01-16T07:36:55;98316.77;;;1.35;92.65
50710;BME280;37033;49.994;21.992;2023-01-16T07:39:45;98310.14;;;1.39;92.69
50710;BME280;37033;49.994;21.992;2023-01-16T07:42:35;98306.77;;;1.43;92.61
50710;BME280;37033;49.994;21.992;2023-01-16T07:45:25;98304.60;;;1.47;92.68
50710;BME280;37033;49.994;21.992;2023-01-16T07:48:15;98308.63;;;1.51;92.76
50710;BME280;37033;49.994;21.992;2023-01-16T07:51:06;98307.67;;;1.56;92.71
50710;BME280;37033;49.994;21.992;2023-01-16T07:53:56;98298.09;;;1.61;92.85
50710;BME280;37033;49.994;21.992;2023-01-16T07:56:45;98292.83;;;1.65;92.77
50710;BME280;37033;49.994;21.992;2023-01-16T07:59:35;98300.63;;;1.71;92.87
50710;BME280;37033;49.994;21.992;2023-01-16T08:02:25;98288.70;;;1.76;92.87
50710;BME280;37033;49.994;21.992;2023-01-16T08:05:16;98275.16;;;1.81;92.87
50710;BME280;37033;49.994;21.992;2023-01-16T08:08:06;98272.75;;;1.85;92.87
50710;BME280;37033;49.994;21.992;2023-01-16T08:10:57;98277.02;;;1.89;92.78
50710;BME280;37033;49.994;21.992;2023-01-16T08:13:47;98278.04;;;1.94;92.83
50710;BME280;37033;49.994;21.992;2023-01-16T08:16:37;98273.23;;;1.97;92.74
50710;BME280;37033;49.994;21.992;2023-01-16T08:19:26;98272.02;;;2.01;92.85
50710;BME280;37033;49.994;21.992;2023-01-16T08:22:16;98269.85;;;2.05;92.89
50710;BME280;37033;49.994;21.992;2023-01-16T08:25:07;98261.06;;;2.08;92.79
50710;BME280;37033;49.994;21.992;2023-01-16T08:27:57;98257.03;;;2.12;92.79
50710;BME280;37033;49.994;21.992;2023-01-16T08:30:47;98242.58;;;2.16;92.77
50710;BME280;37033;49.994;21.992;2023-01-16T08:33:37;98232.09;;;2.19;92.84
50710;BME280;37033;49.994;21.992;2023-01-16T08:36:27;98218.89;;;2.24;92.84
50710;BME280;37033;49.994;21.992;2023-01-16T08:39:17;98222.69;;;2.29;92.94
50710;BME280;37033;49.994;21.992;2023-01-16T08:42:07;98222.29;;;2.34;92.89
50710;BME280;37033;49.994;21.992;2023-01-16T08:45:15;98228.11;;;2.40;92.94
50710;BME280;37033;49.994;21.992;2023-01-16T08:48:25;98221.92;;;2.46;93.05
50710;BME280;37033;49.994;21.992;2023-01-16T08:51:33;98225.86;;;2.52;93.10
50710;BME280;37033;49.994;21.992;2023-01-16T08:54:23;98232.73;;;2.58;93.04
50710;BME280;37033;49.994;21.992;2023-01-16T08:57:14;98232.88;;;2.65;93.12
50710;BME280;37033;49.994;21.992;2023-01-16T09:00:06;98228.29;;;2.70;93.18
50710;BME280;37033;49.994;21.992;2023-01-16T09:02:57;98226.00;;;2.76;93.12
50710;BME280;37033;49.994;21.992;2023-01-16T09:05:49;98226.20;;;2.81;93.04
50710;BME280;37033;49.994;21.992;2023-01-16T09:08:39;98220.61;;;2.85;93.01
50710;BME280;37033;49.994;21.992;2023-01-16T09:11:29;98211.48;;;2.89;92.95
50710;BME280;37033;49.994;21.992;2023-01-16T09:14:37;98204.17;;;2.94;92.86
50710;BME280;37033;49.994;21.992;2023-01-16T09:17:27;98204.64;;;2.97;92.85
50710;BME280;37033;49.994;21.992;2023-01-16T09:20:17;98199.70;;;2.99;92.80
50710;BME280;37033;49.994;21.992;2023-01-16T09:23:07;98194.85;;;3.00;92.72
50710;BME280;37033;49.994;21.992;2023-01-16T09:25:57;98187.33;;;3.02;92.86
50710;BME280;37033;49.994;21.992;2023-01-16T09:28:47;98184.11;;;3.02;92.86
50710;BME280;37033;49.994;21.992;2023-01-16T09:31:37;98177.73;;;3.02;92.84
50710;BME280;37033;49.994;21.992;2023-01-16T09:34:27;98176.36;;;3.03;92.77
50710;BME280;37033;49.994;21.992;2023-01-16T09:37:16;98171.16;;;3.05;92.74
50710;BME280;37033;49.994;21.992;2023-01-16T09:40:12;98165.70;;;3.05;92.73
50710;BME280;37033;49.994;21.992;2023-01-16T09:43:16;98160.76;;;3.07;92.74
50710;BME280;37033;49.994;21.992;2023-01-16T09:46:28;98155.13;;;3.09;92.47
50710;BME280;37033;49.994;21.992;2023-01-16T09:49:23;98150.82;;;3.12;92.65
50710;BME280;37033;49.994;21.992;2023-01-16T09:52:18;98137.16;;;3.15;92.61
50710;BME280;37033;49.994;21.992;2023-01-16T09:55:34;98124.16;;;3.18;92.49
50710;BME280;37033;49.994;21.992;2023-01-16T09:58:48;98105.10;;;3.19;92.37
50710;BME280;37033;49.994;21.992;2023-01-16T10:01:50;98087.48;;;3.21;92.31
50710;BME280;37033;49.994;21.992;2023-01-16T10:04:43;98084.56;;;3.24;92.29
50710;BME280;37033;49.994;21.992;2023-01-16T10:07:47;98090.44;;;3.26;92.06
50710;BME280;37033;49.994;21.992;2023-01-16T10:10:45;98090.64;;;3.28;92.01
50710;BME280;37033;49.994;21.992;2023-01-16T10:17:09;98061.63;;;3.34;91.67
50710;BME280;37033;49.994;21.992;2023-01-16T10:20:30;98067.09;;;3.35;91.53
50710;BME280;37033;49.994;21.992;2023-01-16T10:23:42;98076.70;;;3.40;91.59
50710;BME280;37033;49.994;21.992;2023-01-16T10:26:41;98064.40;;;3.42;91.48
50710;BME280;37033;49.994;21.992;2023-01-16T10:29:36;98052.61;;;3.44;91.29
50710;BME280;37033;49.994;21.992;2023-01-16T10:32:32;98042.77;;;3.46;91.27
50710;BME280;37033;49.994;21.992;2023-01-16T10:35:26;98036.79;;;3.48;91.17
50710;BME280;37033;49.994;21.992;2023-01-16T10:38:25;98038.31;;;3.51;91.03
50710;BME280;37033;49.994;21.992;2023-01-16T10:41:25;98030.04;;;3.51;90.97
50710;BME280;37033;49.994;21.992;2023-01-16T10:44:36;98026.91;;;3.50;90.80
50710;BME280;37033;49.994;21.992;2023-01-16T10:47:44;98021.31;;;3.49;90.67
50710;BME280;37033;49.994;21.992;2023-01-16T10:50:52;98014.70;;;3.49;90.66
50710;BME280;37033;49.994;21.992;2023-01-16T10:53:42;98005.64;;;3.50;90.72
50710;BME280;37033;49.994;21.992;2023-01-16T10:56:33;98007.34;;;3.52;90.69
50710;BME280;37033;49.994;21.992;2023-01-16T10:59:24;98001.62;;;3.53;90.58
50710;BME280;37033;49.994;21.992;2023-01-16T11:02:29;97990.27;;;3.54;90.59
50710;BME280;37033;49.994;21.992;2023-01-16T11:05:29;97981.73;;;3.55;90.63
50710;BME280;37033;49.994;21.992;2023-01-16T11:08:20;97980.21;;;3.58;90.55
50710;BME280;37033;49.994;21.992;2023-01-16T11:11:13;97969.08;;;3.60;90.60
50710;BME280;37033;49.994;21.992;2023-01-16T11:14:23;97964.61;;;3.62;90.49
50710;BME280;37033;49.994;21.992;2023-01-16T11:17:33;97947.73;;;3.62;90.36
50710;BME280;37033;49.994;21.992;2023-01-16T11:20:42;97936.66;;;3.64;90.37
50710;BME280;37033;49.994;21.992;2023-01-16T11:23:40;97929.28;;;3.66;90.30
50710;BME280;37033;49.994;21.992;2023-01-16T11:26:31;97923.26;;;3.68;90.26
50710;BME280;37033;49.994;21.992;2023-01-16T11:29:23;97913.25;;;3.70;90.12
50710;BME280;37033;49.994;21.992;2023-01-16T11:32:15;97907.06;;;3.72;90.15
50710;BME280;37033;49.994;21.992;2023-01-16T11:35:12;97898.84;;;3.74;90.11
50710;BME280;37033;49.994;21.992;2023-01-16T11:38:04;97886.52;;;3.76;90.00
50710;BME280;37033;49.994;21.992;2023-01-16T11:40:57;97880.98;;;3.79;89.98
50710;BME280;37033;49.994;21.992;2023-01-16T11:43:49;97873.48;;;3.82;90.01
50710;BME280;37033;49.994;21.992;2023-01-16T11:47:14;97862.52;;;3.84;89.99
50710;BME280;37033;49.994;21.992;2023-01-16T11:50:31;97860.45;;;3.86;89.84
50710;BME280;37033;49.994;21.992;2023-01-16T11:53:20;97851.83;;;3.87;89.83
50710;BME280;37033;49.994;21.992;2023-01-16T11:56:21;97853.74;;;3.89;89.76
50710;BME280;37033;49.994;21.992;2023-01-16T11:59:24;97844.55;;;3.89;89.73
50710;BME280;37033;49.994;21.992;2023-01-16T12:02:28;97839.73;;;3.90;89.81
50710;BME280;37033;49.994;21.992;2023-01-16T12:05:37;97831.30;;;3.90;89.73
50710;BME280;37033;49.994;21.992;2023-01-16T12:08:53;97823.27;;;3.92;89.74
50710;BME280;37033;49.994;21.992;2023-01-16T12:15:24;97817.19;;;3.92;89.51
50710;BME280;37033;49.994;21.992;2023-01-16T12:18:24;97810.40;;;3.93;89.52
50710;BME280;37033;49.994;21.992;2023-01-16T12:21:27;97809.55;;;3.92;89.34
50710;BME280;37033;49.994;21.992;2023-01-16T12:24:35;97804.95;;;3.93;89.34
50710;BME280;37033;49.994;21.992;2023-01-16T12:27:39;97796.16;;;3.91;89.33
50710;BME280;37033;49.994;21.992;2023-01-16T12:30:49;97792.70;;;3.91;89.39
50710;BME280;37033;49.994;21.992;2023-01-16T12:34:15;97791.14;;;3.90;89.39
50710;BME280;37033;49.994;21.992;2023-01-16T12:37:16;97794.52;;;3.90;89.36
50710;BME280;37033;49.994;21.992;2023-01-16T12:40:23;97789.17;;;3.89;89.32
50710;BME280;37033;49.994;21.992;2023-01-16T12:43:39;97783.12;;;3.90;89.34
50710;BME280;37033;49.994;21.992;2023-01-16T12:46:38;97780.41;;;3.89;89.36
50710;BME280;37033;49.994;21.992;2023-01-16T12:49:43;97780.50;;;3.89;89.31
50710;BME280;37033;49.994;21.992;2023-01-16T12:52:56;97773.13;;;3.88;89.31
50710;BME280;37033;49.994;21.992;2023-01-16T12:55:57;97775.45;;;3.88;89.28
50710;BME280;37033;49.994;21.992;2023-01-16T12:58:53;97774.47;;;3.87;89.28
50710;BME280;37033;49.994;21.992;2023-01-16T13:01:44;97777.20;;;3.87;89.26
50710;BME280;37033;49.994;21.992;2023-01-16T13:04:39;97780.64;;;3.84;89.16
50710;BME280;37033;49.994;21.992;2023-01-16T13:07:34;97774.25;;;3.83;89.29
50710;BME280;37033;49.994;21.992;2023-01-16T13:10:29;97770.48;;;3.83;89.29
50710;BME280;37033;49.994;21.992;2023-01-16T13:13:44;97762.66;;;3.81;89.35
50710;BME280;37033;49.994;21.992;2023-01-16T13:16:39;97761.63;;;3.80;89.31
50710;BME280;37033;49.994;21.992;2023-01-16T13:19:31;97755.23;;;3.78;89.32
50710;BME280;37033;49.994;21.992;2023-01-16T13:22:26;97745.59;;;3.77;89.44
50710;BME280;37033;49.994;21.992;2023-01-16T13:25:20;97741.44;;;3.75;89.34
50710;BME280;37033;49.994;21.992;2023-01-16T13:28:17;97733.66;;;3.74;89.39
50710;BME280;37033;49.994;21.992;2023-01-16T13:31:13;97731.83;;;3.73;89.48
50710;BME280;37033;49.994;21.992;2023-01-16T13:34:11;97727.27;;;3.71;89.48
50710;BME280;37033;49.994;21.992;2023-01-16T13:37:26;97722.08;;;3.70;89.55
50710;BME280;37033;49.994;21.992;2023-01-16T13:40:36;97711.46;;;3.69;89.61
50710;BME280;37033;49.994;21.992;2023-01-16T13:43:32;97702.42;;;3.68;89.61
50710;BME280;37033;49.994;21.992;2023-01-16T13:46:41;97703.33;;;3.67;89.50
50710;BME280;37033;49.994;21.992;2023-01-16T13:49:35;97703.73;;;3.66;89.60
50710;BME280;37033;49.994;21.992;2023-01-16T13:52:27;97702.77;;;3.66;89.68
50710;BME280;37033;49.994;21.992;2023-01-16T13:55:29;97695.46;;;3.66;89.65
50710;BME280;37033;49.994;21.992;2023-01-16T13:58:21;97688.84;;;3.66;89.61
50710;BME280;37033;49.994;21.992;2023-01-16T14:01:36;97689.01;;;3.66;89.72
50710;BME280;37033;49.994;21.992;2023-01-16T14:04:32;97687.38;;;3.65;89.63
50710;BME280;37033;49.994;21.992;2023-01-16T14:07:50;97687.55;;;3.64;89.63
50710;BME280;37033;49.994;21.992;2023-01-16T14:11:22;97680.83;;;3.63;89.67
50710;BME280;37033;49.994;21.992;2023-01-16T14:14:49;97680.98;;;3.62;89.84
50710;BME280;37033;49.994;21.992;2023-01-16T14:18:15;97678.65;;;3.62;89.71
50710;BME280;37033;49.994;21.992;2023-01-16T14:21:12;97668.23;;;3.58;89.74
50710;BME280;37033;49.994;21.992;2023-01-16T14:24:06;97658.73;;;3.57;89.79
50710;BME280;37033;49.994;21.992;2023-01-16T14:27:02;97656.14;;;3.56;89.80
50710;BME280;37033;49.994;21.992;2023-01-16T14:29:54;97645.76;;;3.55;89.86
50710;BME280;37033;49.994;21.992;2023-01-16T14:32:55;97639.45;;;3.54;89.92
50710;BME280;37033;49.994;21.992;2023-01-16T14:35:51;97635.43;;;3.52;89.98
50710;BME280;37033;49.994;21.992;2023-01-16T14:38:47;97630.25;;;3.51;89.94
50710;BME280;37033;49.994;21.992;2023-01-16T14:41:35;97628.01;;;3.49;89.91
50710;BME280;37033;49.994;21.992;2023-01-16T14:45:13;97621.69;;;3.47;90.06
50710;BME280;37033;49.994;21.992;2023-01-16T14:48:36;97614.79;;;3.46;90.04
50710;BME280;37033;49.994;21.992;2023-01-16T14:51:59;97616.09;;;3.44;90.11
50710;BME280;37033;49.994;21.992;2023-01-16T14:55:10;97610.39;;;3.41;90.09
50710;BME280;37033;49.994;21.992;2023-01-16T14:58:04;97612.66;;;3.39;90.11
50710;BME280;37033;49.994;21.992;2023-01-16T15:00:56;97607.63;;;3.36;90.21
50710;BME280;37033;49.994;21.992;2023-01-16T15:04:01;97598.30;;;3.34;90.35
50710;BME280;37033;49.994;21.992;2023-01-16T15:06:55;97594.46;;;3.33;90.31
50710;BME280;37033;49.994;21.992;2023-01-16T15:09:47;97589.92;;;3.32;90.52
50710;BME280;37033;49.994;21.992;2023-01-16T15:12:40;97584.44;;;3.29;90.55
50710;BME280;37033;49.994;21.992;2023-01-16T15:15:32;97584.20;;;3.28;90.54
50710;BME280;37033;49.994;21.992;2023-01-16T15:18:23;97582.92;;;3.28;90.59
50710;BME280;37033;49.994;21.992;2023-01-16T15:21:31;97584.58;;;3.28;90.52
50710;BME280;37033;49.994;21.992;2023-01-16T15:24:39;97582.73;;;3.27;90.54
50710;BME280;37033;49.994;21.992;2023-01-16T15:27:33;97580.20;;;3.26;90.46
50710;BME280;37033;49.994;21.992;2023-01-16T15:30:26;97574.34;;;3.26;90.58
50710;BME280;37033;49.994;21.992;2023-01-16T15:33:25;97570.97;;;3.27;90.67
50710;BME280;37033;49.994;21.992;2023-01-16T15:36:46;97569.86;;;3.28;90.83
50710;BME280;37033;49.994;21.992;2023-01-16T15:39:41;97561.98;;;3.29;90.84
50710;BME280;37033;49.994;21.992;2023-01-16T15:42:33;97557.14;;;3.28;90.71